sensor_id;sensor_type;location;lat;lon;timestamp;temperature;humidity
5705;DHT22;2877;48.238;11.160;2022-12-31T00:02:03;11.40;99.90
5705;DHT22;2877;48.238;11.160;2022-12-31T00:04:29;11.40;99.90
5705;DHT22;2877;48.238;11.160;2022-12-31T00:06:54;11.50;99.90
5705;DHT22;2877;48.238;11.160;2022-12-31T00:09:20;11.40;99.90
5705;DHT22;2877;48.238;11.160;2022-12-31T00:11:45;11.50;99.90
5705;DHT22;2877;48.238;11.160;2022-12-31T00:14:11;11.40;99.90
5705;DHT22;2877;48.238;11.160;2022-12-31T00:16:39;11.40;99.90
5705;DHT22;2877;48.238;11.160;2022-12-31T00:19:07;11.40;99.90
5705;DHT22;2877;48.238;11.160;2022-12-31T00:21:34;11.50;99.90
5705;DHT22;2877;48.238;11.160;2022-12-31T00:24:01;11.50;99.90
5705;DHT22;2877;48.238;11.160;2022-12-31T00:26:28;11.50;99.90
5705;DHT22;2877;48.238;11.160;2022-12-31T00:28:55;11.60;99.90
5705;DHT22;2877;48.238;11.160;2022-12-31T00:31:33;11.70;99.90
5705;DHT22;2877;48.238;11.160;2022-12-31T00:33:59;11.70;99.90
5705;DHT22;2877;48.238;11.160;2022-12-31T00:36:27;11.80;99.90
5705;DHT22;2877;48.238;11.160;2022-12-31T00:38:54;11.80;99.90
5705;DHT22;2877;48.238;11.160;2022-12-31T00:41:21;11.90;99.90
5705;DHT22;2877;48.238;11.160;2022-12-31T00:43:47;11.90;99.90
5705;DHT22;2877;48.238;11.160;2022-12-31T00:46:14;11.90;99.90
5705;DHT22;2877;48.238;11.160;2022-12-31T00:48:40;11.90;99.90
5705;DHT22;2877;48.238;11.160;2022-12-31T00:51:09;12.00;99.90
5705;DHT22;2877;48.238;11.160;2022-12-31T00:53:35;11.90;99.90
5705;DHT22;2877;48.238;11.160;2022-12-31T00:56:03;11.90;99.90
5705;DHT22;2877;48.238;11.160;2022-12-31T00:58:29;11.90;99.90
5705;DHT22;2877;48.238;11.160;2022-12-31T01:00:54;11.90;99.90
5705;DHT22;2877;48.238;11.160;2022-12-31T01:03:20;11.90;99.90
5705;DHT22;2877;48.238;11.160;2022-12-31T01:05:46;11.90;99.90
5705;DHT22;2877;48.238;11.160;2022-12-31T01:08:11;11.80;99.90
5705;DHT22;2877;48.238;11.160;2022-12-31T01:10:37;11.80;99.90
5705;DHT22;2877;48.238;11.160;2022-12-31T01:13:21;11.90;99.90
5705;DHT22;2877;48.238;11.160;2022-12-31T01:15:47;11.90;99.90
5705;DHT22;2877;48.238;11.160;2022-12-31T01:18:12;11.90;99.90
5705;DHT22;2877;48.238;11.160;2022-12-31T01:20:40;11.90;99.90
5705;DHT22;2877;48.238;11.160;2022-12-31T01:23:07;11.90;99.90
5705;DHT22;2877;48.238;11.160;2022-12-31T01:25:37;11.80;99.90
5705;DHT22;2877;48.238;11.160;2022-12-31T01:28:04;11.70;99.90
5705;DHT22;2877;48.238;11.160;2022-12-31T01:30:30;11.70;99.90
5705;DHT22;2877;48.238;11.160;2022-12-31T01:32:56;11.80;99.90
5705;DHT22;2877;48.238;11.160;2022-12-31T01:35:22;11.80;99.90
5705;DHT22;2877;48.238;11.160;2022-12-31T01:37:47;11.80;99.90
5705;DHT22;2877;48.238;11.160;2022-12-31T01:40:13;11.80;99.90
5705;DHT22;2877;48.238;11.160;2022-12-31T01:42:38;11.70;99.90
5705;DHT22;2877;48.238;11.160;2022-12-31T01:45:11;11.80;99.90
5705;DHT22;2877;48.238;11.160;2022-12-31T01:47:43;11.60;99.90
5705;DHT22;2877;48.238;11.160;2022-12-31T01:50:26;11.50;99.90
5705;DHT22;2877;48.238;11.160;2022-12-31T01:52:57;11.50;99.90
5705;DHT22;2877;48.238;11.160;2022-12-31T01:55:31;11.50;99.90
5705;DHT22;2877;48.238;11.160;2022-12-31T01:58:19;11.60;99.90
5705;DHT22;2877;48.238;11.160;2022-12-31T02:00:46;11.50;99.90
5705;DHT22;2877;48.238;11.160;2022-12-31T02:03:12;11.50;99.90
5705;DHT22;2877;48.238;11.160;2022-12-31T02:08:17;11.40;99.90
5705;DHT22;2877;48.238;11.160;2022-12-31T02:10:43;11.30;99.90
5705;DHT22;2877;48.238;11.160;2022-12-31T02:13:09;11.20;99.90
5705;DHT22;2877;48.238;11.160;2022-12-31T02:18:20;11.10;99.90
5705;DHT22;2877;48.238;11.160;2022-12-31T02:20:59;11.10;99.90
5705;DHT22;2877;48.238;11.160;2022-12-31T02:23:57;11.10;99.90
5705;DHT22;2877;48.238;11.160;2022-12-31T02:26:54;11.10;99.90
5705;DHT22;2877;48.238;11.160;2022-12-31T02:32:29;11.20;99.90
5705;DHT22;2877;48.238;11.160;2022-12-31T02:35:03;11.20;99.90
5705;DHT22;2877;48.238;11.160;2022-12-31T02:37:32;11.20;99.90
5705;DHT22;2877;48.238;11.160;2022-12-31T02:39:59;11.20;99.90
5705;DHT22;2877;48.238;11.160;2022-12-31T02:42:25;11.20;99.90
5705;DHT22;2877;48.238;11.160;2022-12-31T02:44:50;11.30;99.90
5705;DHT22;2877;48.238;11.160;2022-12-31T02:47:31;11.30;99.90
5705;DHT22;2877;48.238;11.160;2022-12-31T02:53:08;11.50;99.90
5705;DHT22;2877;48.238;11.160;2022-12-31T02:55:58;11.50;99.90
5705;DHT22;2877;48.238;11.160;2022-12-31T03:01:38;11.60;99.90
5705;DHT22;2877;48.238;11.160;2022-12-31T03:04:24;11.70;99.90
5705;DHT22;2877;48.238;11.160;2022-12-31T03:06:59;11.70;99.90
5705;DHT22;2877;48.238;11.160;2022-12-31T03:09:25;11.80;99.90
5705;DHT22;2877;48.238;11.160;2022-12-31T03:11:51;11.80;99.90
5705;DHT22;2877;48.238;11.160;2022-12-31T03:14:35;11.70;99.90
5705;DHT22;2877;48.238;11.160;2022-12-31T03:17:01;11.80;99.90
5705;DHT22;2877;48.238;11.160;2022-12-31T03:19:26;11.80;99.90
5705;DHT22;2877;48.238;11.160;2022-12-31T03:22:14;11.70;99.90
5705;DHT22;2877;48.238;11.160;2022-12-31T03:24:53;11.70;99.90
5705;DHT22;2877;48.238;11.160;2022-12-31T03:27:37;11.80;99.90
5705;DHT22;2877;48.238;11.160;2022-12-31T03:30:03;11.70;99.90
5705;DHT22;2877;48.238;11.160;2022-12-31T03:32:29;11.80;99.90
5705;DHT22;2877;48.238;11.160;2022-12-31T03:34:54;11.70;99.90
5705;DHT22;2877;48.238;11.160;2022-12-31T03:37:20;11.60;99.90
5705;DHT22;2877;48.238;11.160;2022-12-31T03:39:46;11.50;99.90
5705;DHT22;2877;48.238;11.160;2022-12-31T03:42:11;11.60;99.90
5705;DHT22;2877;48.238;11.160;2022-12-31T03:44:37;11.60;99.90
5705;DHT22;2877;48.238;11.160;2022-12-31T03:47:02;11.60;99.90
5705;DHT22;2877;48.238;11.160;2022-12-31T03:49:28;11.70;99.90
5705;DHT22;2877;48.238;11.160;2022-12-31T03:51:53;11.80;99.90
5705;DHT22;2877;48.238;11.160;2022-12-31T03:54:19;11.90;99.90
5705;DHT22;2877;48.238;11.160;2022-12-31T03:56:45;12.10;99.90
5705;DHT22;2877;48.238;11.160;2022-12-31T03:59:10;12.20;99.90
5705;DHT22;2877;48.238;11.160;2022-12-31T04:01:36;12.40;99.90
5705;DHT22;2877;48.238;11.160;2022-12-31T04:04:01;12.50;99.90
5705;DHT22;2877;48.238;11.160;2022-12-31T04:06:27;12.80;99.90
5705;DHT22;2877;48.238;11.160;2022-12-31T04:08:52;12.80;99.90
5705;DHT22;2877;48.238;11.160;2022-12-31T04:11:18;12.80;99.90
5705;DHT22;2877;48.238;11.160;2022-12-31T04:13:43;12.90;99.90
5705;DHT22;2877;48.238;11.160;2022-12-31T04:16:09;13.00;99.90
5705;DHT22;2877;48.238;11.160;2022-12-31T04:18:35;13.00;99.90
5705;DHT22;2877;48.238;11.160;2022-12-31T04:21:01;13.00;99.90
5705;DHT22;2877;48.238;11.160;2022-12-31T04:23:27;13.20;99.90
5705;DHT22;2877;48.238;11.160;2022-12-31T04:25:53;13.10;99.90
5705;DHT22;2877;48.238;11.160;2022-12-31T04:28:18;13.10;99.90
5705;DHT22;2877;48.238;11.160;2022-12-31T04:30:44;13.10;99.90
5705;DHT22;2877;48.238;11.160;2022-12-31T04:33:09;13.10;99.90
5705;DHT22;2877;48.238;11.160;2022-12-31T04:35:35;13.10;99.90
5705;DHT22;2877;48.238;11.160;2022-12-31T04:38:00;13.20;99.90
5705;DHT22;2877;48.238;11.160;2022-12-31T04:40:26;13.30;99.90
5705;DHT22;2877;48.238;11.160;2022-12-31T04:42:51;13.40;99.90
5705;DHT22;2877;48.238;11.160;2022-12-31T04:45:17;13.30;99.90
5705;DHT22;2877;48.238;11.160;2022-12-31T04:47:42;13.30;99.90
5705;DHT22;2877;48.238;11.160;2022-12-31T04:50:08;13.20;99.90
5705;DHT22;2877;48.238;11.160;2022-12-31T04:52:34;13.20;99.90
5705;DHT22;2877;48.238;11.160;2022-12-31T04:54:59;13.20;99.90
5705;DHT22;2877;48.238;11.160;2022-12-31T04:57:25;13.20;99.90
5705;DHT22;2877;48.238;11.160;2022-12-31T04:59:50;13.20;99.90
5705;DHT22;2877;48.238;11.160;2022-12-31T05:02:16;13.20;99.90
5705;DHT22;2877;48.238;11.160;2022-12-31T05:04:41;13.20;99.90
5705;DHT22;2877;48.238;11.160;2022-12-31T05:07:07;13.20;99.90
5705;DHT22;2877;48.238;11.160;2022-12-31T05:09:32;13.30;99.90
5705;DHT22;2877;48.238;11.160;2022-12-31T05:11:58;13.30;99.90
5705;DHT22;2877;48.238;11.160;2022-12-31T05:14:23;13.30;99.90
5705;DHT22;2877;48.238;11.160;2022-12-31T05:16:50;13.20;99.90
5705;DHT22;2877;48.238;11.160;2022-12-31T05:19:16;13.10;99.90
5705;DHT22;2877;48.238;11.160;2022-12-31T05:21:41;13.10;99.90
5705;DHT22;2877;48.238;11.160;2022-12-31T05:24:07;13.00;99.90
5705;DHT22;2877;48.238;11.160;2022-12-31T05:26:33;13.10;99.90
5705;DHT22;2877;48.238;11.160;2022-12-31T05:28:58;13.20;99.90
5705;DHT22;2877;48.238;11.160;2022-12-31T05:31:25;13.20;99.90
5705;DHT22;2877;48.238;11.160;2022-12-31T05:33:51;13.30;99.90
5705;DHT22;2877;48.238;11.160;2022-12-31T05:36:17;13.30;99.90
5705;DHT22;2877;48.238;11.160;2022-12-31T05:38:43;13.20;99.90
5705;DHT22;2877;48.238;11.160;2022-12-31T05:41:10;13.20;99.90
5705;DHT22;2877;48.238;11.160;2022-12-31T05:43:35;13.20;99.90
5705;DHT22;2877;48.238;11.160;2022-12-31T05:46:03;13.30;99.90
5705;DHT22;2877;48.238;11.160;2022-12-31T05:48:29;13.20;99.90
5705;DHT22;2877;48.238;11.160;2022-12-31T05:50:55;13.10;99.90
5705;DHT22;2877;48.238;11.160;2022-12-31T05:53:20;13.00;99.90
5705;DHT22;2877;48.238;11.160;2022-12-31T05:55:47;12.80;99.90
5705;DHT22;2877;48.238;11.160;2022-12-31T05:58:13;12.60;99.90
5705;DHT22;2877;48.238;11.160;2022-12-31T06:00:40;12.50;99.90
5705;DHT22;2877;48.238;11.160;2022-12-31T06:03:06;12.50;99.90
5705;DHT22;2877;48.238;11.160;2022-12-31T06:05:31;12.50;99.90
5705;DHT22;2877;48.238;11.160;2022-12-31T06:07:57;12.50;99.90
5705;DHT22;2877;48.238;11.160;2022-12-31T06:10:22;12.50;99.90
5705;DHT22;2877;48.238;11.160;2022-12-31T06:12:48;12.50;99.90
5705;DHT22;2877;48.238;11.160;2022-12-31T06:15:14;12.50;99.90
5705;DHT22;2877;48.238;11.160;2022-12-31T06:17:39;12.50;99.90
5705;DHT22;2877;48.238;11.160;2022-12-31T06:20:05;12.50;99.90
5705;DHT22;2877;48.238;11.160;2022-12-31T06:22:31;12.50;99.90
5705;DHT22;2877;48.238;11.160;2022-12-31T06:24:56;12.50;99.90
5705;DHT22;2877;48.238;11.160;2022-12-31T06:27:22;12.50;99.90
5705;DHT22;2877;48.238;11.160;2022-12-31T06:29:47;12.50;99.90
5705;DHT22;2877;48.238;11.160;2022-12-31T06:32:14;12.50;99.90
5705;DHT22;2877;48.238;11.160;2022-12-31T06:34:40;12.50;99.90
5705;DHT22;2877;48.238;11.160;2022-12-31T06:37:05;12.40;99.90
5705;DHT22;2877;48.238;11.160;2022-12-31T06:39:31;12.40;99.90
5705;DHT22;2877;48.238;11.160;2022-12-31T06:41:56;12.30;99.90
5705;DHT22;2877;48.238;11.160;2022-12-31T06:44:22;12.20;99.90
5705;DHT22;2877;48.238;11.160;2022-12-31T06:46:48;12.20;99.90
5705;DHT22;2877;48.238;11.160;2022-12-31T06:49:14;12.20;99.90
5705;DHT22;2877;48.238;11.160;2022-12-31T06:51:40;12.10;99.90
5705;DHT22;2877;48.238;11.160;2022-12-31T06:54:06;12.10;99.90
5705;DHT22;2877;48.238;11.160;2022-12-31T06:56:32;12.10;99.90
5705;DHT22;2877;48.238;11.160;2022-12-31T06:58:58;12.10;99.90
5705;DHT22;2877;48.238;11.160;2022-12-31T07:01:44;12.10;99.90
5705;DHT22;2877;48.238;11.160;2022-12-31T07:19:13;11.80;99.90
5705;DHT22;2877;48.238;11.160;2022-12-31T07:21:42;11.80;99.90
5705;DHT22;2877;48.238;11.160;2022-12-31T07:24:09;11.90;99.90
5705;DHT22;2877;48.238;11.160;2022-12-31T07:29:38;11.90;99.90
5705;DHT22;2877;48.238;11.160;2022-12-31T07:37:55;12.00;99.90
5705;DHT22;2877;48.238;11.160;2022-12-31T07:43:32;12.10;99.90
5705;DHT22;2877;48.238;11.160;2022-12-31T07:48:30;12.20;99.90
5705;DHT22;2877;48.238;11.160;2022-12-31T07:50:56;12.20;99.90
5705;DHT22;2877;48.238;11.160;2022-12-31T07:53:23;12.20;99.90
5705;DHT22;2877;48.238;11.160;2022-12-31T07:55:59;12.30;99.90
5705;DHT22;2877;48.238;11.160;2022-12-31T08:01:11;12.40;99.90
5705;DHT22;2877;48.238;11.160;2022-12-31T08:09:36;12.50;99.90
5705;DHT22;2877;48.238;11.160;2022-12-31T08:12:02;12.50;99.90
5705;DHT22;2877;48.238;11.160;2022-12-31T08:14:29;12.60;99.90
5705;DHT22;2877;48.238;11.160;2022-12-31T08:16:55;12.60;99.90
5705;DHT22;2877;48.238;11.160;2022-12-31T08:19:27;12.60;99.90
5705;DHT22;2877;48.238;11.160;2022-12-31T08:25:04;12.60;99.90
5705;DHT22;2877;48.238;11.160;2022-12-31T08:30:55;12.70;99.90
5705;DHT22;2877;48.238;11.160;2022-12-31T08:33:35;12.80;99.90
5705;DHT22;2877;48.238;11.160;2022-12-31T08:36:37;12.80;99.90
5705;DHT22;2877;48.238;11.160;2022-12-31T08:41:54;13.00;99.90
5705;DHT22;2877;48.238;11.160;2022-12-31T08:44:41;13.10;99.90
5705;DHT22;2877;48.238;11.160;2022-12-31T08:49:40;13.20;99.90
5705;DHT22;2877;48.238;11.160;2022-12-31T08:52:14;13.10;99.90
5705;DHT22;2877;48.238;11.160;2022-12-31T08:54:40;13.10;99.90
5705;DHT22;2877;48.238;11.160;2022-12-31T08:57:26;13.10;99.90
5705;DHT22;2877;48.238;11.160;2022-12-31T09:05:59;13.30;99.90
5705;DHT22;2877;48.238;11.160;2022-12-31T09:11:31;13.50;99.90
5705;DHT22;2877;48.238;11.160;2022-12-31T09:17:03;13.60;99.90
5705;DHT22;2877;48.238;11.160;2022-12-31T09:19:34;13.70;99.90
5705;DHT22;2877;48.238;11.160;2022-12-31T09:21:59;13.80;99.90
5705;DHT22;2877;48.238;11.160;2022-12-31T09:24:25;13.90;99.90
5705;DHT22;2877;48.238;11.160;2022-12-31T09:27:05;14.00;99.90
5705;DHT22;2877;48.238;11.160;2022-12-31T09:38:06;14.60;99.90
5705;DHT22;2877;48.238;11.160;2022-12-31T09:51:56;15.20;99.90
5705;DHT22;2877;48.238;11.160;2022-12-31T09:54:36;15.30;99.90
5705;DHT22;2877;48.238;11.160;2022-12-31T10:05:41;15.80;99.90
5705;DHT22;2877;48.238;11.160;2022-12-31T10:14:07;15.90;99.90
5705;DHT22;2877;48.238;11.160;2022-12-31T10:27:57;15.90;99.90
5705;DHT22;2877;48.238;11.160;2022-12-31T10:30:24;15.80;99.90
5705;DHT22;2877;48.238;11.160;2022-12-31T10:33:14;15.80;99.90
5705;DHT22;2877;48.238;11.160;2022-12-31T10:35:56;15.80;99.90
5705;DHT22;2877;48.238;11.160;2022-12-31T10:38:54;15.70;99.90
5705;DHT22;2877;48.238;11.160;2022-12-31T10:50:13;15.40;99.90
5705;DHT22;2877;48.238;11.160;2022-12-31T10:55:49;15.30;99.90
5705;DHT22;2877;48.238;11.160;2022-12-31T11:04:33;15.20;99.90
5705;DHT22;2877;48.238;11.160;2022-12-31T11:18:19;15.30;99.90
5705;DHT22;2877;48.238;11.160;2022-12-31T11:21:28;15.40;99.90
5705;DHT22;2877;48.238;11.160;2022-12-31T11:24:21;15.40;99.90
5705;DHT22;2877;48.238;11.160;2022-12-31T11:33:08;15.60;99.90
5705;DHT22;2877;48.238;11.160;2022-12-31T11:38:44;15.70;99.90
5705;DHT22;2877;48.238;11.160;2022-12-31T11:41:27;15.70;99.90
5705;DHT22;2877;48.238;11.160;2022-12-31T11:47:22;15.70;99.90
5705;DHT22;2877;48.238;11.160;2022-12-31T11:50:09;15.70;99.90
5705;DHT22;2877;48.238;11.160;2022-12-31T11:55:39;15.80;99.90
5705;DHT22;2877;48.238;11.160;2022-12-31T11:58:13;15.90;99.90
5705;DHT22;2877;48.238;11.160;2022-12-31T12:00:45;15.90;99.90
5705;DHT22;2877;48.238;11.160;2022-12-31T12:03:14;15.90;99.90
5705;DHT22;2877;48.238;11.160;2022-12-31T12:05:40;16.00;99.90
5705;DHT22;2877;48.238;11.160;2022-12-31T12:08:06;16.00;99.90
5705;DHT22;2877;48.238;11.160;2022-12-31T12:13:20;16.30;99.90
5705;DHT22;2877;48.238;11.160;2022-12-31T12:15:51;16.30;99.90
5705;DHT22;2877;48.238;11.160;2022-12-31T12:21:18;16.40;99.90
5705;DHT22;2877;48.238;11.160;2022-12-31T12:24:01;16.40;99.90
5705;DHT22;2877;48.238;11.160;2022-12-31T12:26:33;16.50;99.90
5705;DHT22;2877;48.238;11.160;2022-12-31T12:29:08;16.50;99.90
5705;DHT22;2877;48.238;11.160;2022-12-31T12:31:34;16.40;99.90
5705;DHT22;2877;48.238;11.160;2022-12-31T12:34:00;16.50;99.90
5705;DHT22;2877;48.238;11.160;2022-12-31T12:36:26;16.50;99.90
5705;DHT22;2877;48.238;11.160;2022-12-31T12:39:03;16.40;99.90
5705;DHT22;2877;48.238;11.160;2022-12-31T12:41:29;16.50;99.90
5705;DHT22;2877;48.238;11.160;2022-12-31T12:44:15;16.40;99.90
5705;DHT22;2877;48.238;11.160;2022-12-31T12:46:46;16.40;99.90
5705;DHT22;2877;48.238;11.160;2022-12-31T12:49:36;16.40;99.90
5705;DHT22;2877;48.238;11.160;2022-12-31T12:57:23;16.50;99.90
5705;DHT22;2877;48.238;11.160;2022-12-31T13:03:28;16.40;99.90
5705;DHT22;2877;48.238;11.160;2022-12-31T13:09:13;16.40;99.90
5705;DHT22;2877;48.238;11.160;2022-12-31T13:17:26;16.30;99.90
5705;DHT22;2877;48.238;11.160;2022-12-31T13:22:40;16.20;99.90
5705;DHT22;2877;48.238;11.160;2022-12-31T13:25:27;16.20;99.90
5705;DHT22;2877;48.238;11.160;2022-12-31T13:27:58;16.20;99.90
5705;DHT22;2877;48.238;11.160;2022-12-31T13:30:31;16.10;99.90
5705;DHT22;2877;48.238;11.160;2022-12-31T13:33:10;16.10;99.90
5705;DHT22;2877;48.238;11.160;2022-12-31T13:35:56;16.00;99.90
5705;DHT22;2877;48.238;11.160;2022-12-31T13:38:35;16.00;99.90
5705;DHT22;2877;48.238;11.160;2022-12-31T13:41:10;16.00;99.90
5705;DHT22;2877;48.238;11.160;2022-12-31T13:49:45;15.90;99.90
5705;DHT22;2877;48.238;11.160;2022-12-31T13:52:32;15.90;99.90
5705;DHT22;2877;48.238;11.160;2022-12-31T14:06:57;15.50;99.90
5705;DHT22;2877;48.238;11.160;2022-12-31T14:09:23;15.50;99.90
5705;DHT22;2877;48.238;11.160;2022-12-31T14:12:06;15.50;99.90
5705;DHT22;2877;48.238;11.160;2022-12-31T14:14:58;15.30;99.90
5705;DHT22;2877;48.238;11.160;2022-12-31T14:17:46;15.30;99.90
5705;DHT22;2877;48.238;11.160;2022-12-31T14:25:24;14.90;99.90
5705;DHT22;2877;48.238;11.160;2022-12-31T14:27:54;14.80;99.90
5705;DHT22;2877;48.238;11.160;2022-12-31T14:30:22;14.60;99.90
5705;DHT22;2877;48.238;11.160;2022-12-31T14:35:54;14.50;99.90
5705;DHT22;2877;48.238;11.160;2022-12-31T14:38:56;14.30;99.90
5705;DHT22;2877;48.238;11.160;2022-12-31T14:50:05;13.90;99.90
5705;DHT22;2877;48.238;11.160;2022-12-31T14:57:40;13.40;99.90
5705;DHT22;2877;48.238;11.160;2022-12-31T15:00:29;13.30;99.90
5705;DHT22;2877;48.238;11.160;2022-12-31T15:05:37;13.00;99.90
5705;DHT22;2877;48.238;11.160;2022-12-31T15:13:35;12.70;99.90
5705;DHT22;2877;48.238;11.160;2022-12-31T15:22:15;12.30;99.90
5705;DHT22;2877;48.238;11.160;2022-12-31T15:24:46;12.20;99.90
5705;DHT22;2877;48.238;11.160;2022-12-31T15:27:43;12.20;99.90
5705;DHT22;2877;48.238;11.160;2022-12-31T15:30:36;12.00;99.90
5705;DHT22;2877;48.238;11.160;2022-12-31T15:33:15;11.90;99.90
5705;DHT22;2877;48.238;11.160;2022-12-31T15:35:50;11.70;99.90
5705;DHT22;2877;48.238;11.160;2022-12-31T15:38:28;11.60;99.90
5705;DHT22;2877;48.238;11.160;2022-12-31T15:40:54;11.50;99.90
5705;DHT22;2877;48.238;11.160;2022-12-31T15:45:52;11.50;99.90
5705;DHT22;2877;48.238;11.160;2022-12-31T15:48:42;11.50;99.90
5705;DHT22;2877;48.238;11.160;2022-12-31T15:51:21;11.50;99.90
5705;DHT22;2877;48.238;11.160;2022-12-31T15:53:52;11.50;99.90
5705;DHT22;2877;48.238;11.160;2022-12-31T15:56:25;11.40;99.90
5705;DHT22;2877;48.238;11.160;2022-12-31T15:58:57;11.40;99.90
5705;DHT22;2877;48.238;11.160;2022-12-31T16:01:29;11.30;99.90
5705;DHT22;2877;48.238;11.160;2022-12-31T16:03:58;11.20;99.90
5705;DHT22;2877;48.238;11.160;2022-12-31T16:06:28;11.20;99.90
5705;DHT22;2877;48.238;11.160;2022-12-31T16:08:54;11.30;99.90
5705;DHT22;2877;48.238;11.160;2022-12-31T16:11:21;11.30;99.90
5705;DHT22;2877;48.238;11.160;2022-12-31T16:13:51;11.20;99.90
5705;DHT22;2877;48.238;11.160;2022-12-31T16:16:29;11.20;99.90
5705;DHT22;2877;48.238;11.160;2022-12-31T16:18:56;11.10;99.90
5705;DHT22;2877;48.238;11.160;2022-12-31T16:23:52;10.90;99.90
5705;DHT22;2877;48.238;11.160;2022-12-31T16:26:18;10.80;99.90
5705;DHT22;2877;48.238;11.160;2022-12-31T16:28:47;10.80;99.90
5705;DHT22;2877;48.238;11.160;2022-12-31T16:31:16;10.70;99.90
5705;DHT22;2877;48.238;11.160;2022-12-31T16:33:43;10.70;99.90
5705;DHT22;2877;48.238;11.160;2022-12-31T16:36:20;10.70;99.90
5705;DHT22;2877;48.238;11.160;2022-12-31T16:38:46;10.60;99.90
5705;DHT22;2877;48.238;11.160;2022-12-31T16:41:17;10.60;99.90
5705;DHT22;2877;48.238;11.160;2022-12-31T16:43:44;10.70;99.90
5705;DHT22;2877;48.238;11.160;2022-12-31T16:46:16;10.70;99.90
5705;DHT22;2877;48.238;11.160;2022-12-31T16:48:48;10.70;99.90
5705;DHT22;2877;48.238;11.160;2022-12-31T16:51:18;10.80;99.90
5705;DHT22;2877;48.238;11.160;2022-12-31T16:53:45;10.90;99.90
5705;DHT22;2877;48.238;11.160;2022-12-31T16:56:23;10.90;99.90
5705;DHT22;2877;48.238;11.160;2022-12-31T16:58:55;11.00;99.90
5705;DHT22;2877;48.238;11.160;2022-12-31T17:01:24;11.00;99.90
5705;DHT22;2877;48.238;11.160;2022-12-31T17:03:56;11.00;99.90
5705;DHT22;2877;48.238;11.160;2022-12-31T17:06:22;11.00;99.90
5705;DHT22;2877;48.238;11.160;2022-12-31T17:08:49;11.10;99.90
5705;DHT22;2877;48.238;11.160;2022-12-31T17:11:34;11.10;99.90
5705;DHT22;2877;48.238;11.160;2022-12-31T17:16:33;11.00;99.90
5705;DHT22;2877;48.238;11.160;2022-12-31T17:18:59;11.00;99.90
5705;DHT22;2877;48.238;11.160;2022-12-31T17:21:27;10.90;99.90
5705;DHT22;2877;48.238;11.160;2022-12-31T17:23:59;10.90;99.90
5705;DHT22;2877;48.238;11.160;2022-12-31T17:26:31;10.80;99.90
5705;DHT22;2877;48.238;11.160;2022-12-31T17:28:59;10.90;99.90
5705;DHT22;2877;48.238;11.160;2022-12-31T17:31:34;10.90;99.90
5705;DHT22;2877;48.238;11.160;2022-12-31T17:39:23;10.70;99.90
5705;DHT22;2877;48.238;11.160;2022-12-31T17:41:51;10.70;99.90
5705;DHT22;2877;48.238;11.160;2022-12-31T17:44:25;10.70;99.90
5705;DHT22;2877;48.238;11.160;2022-12-31T17:46:51;10.70;99.90
5705;DHT22;2877;48.238;11.160;2022-12-31T17:49:19;10.60;99.90
5705;DHT22;2877;48.238;11.160;2022-12-31T17:51:46;10.70;99.90
5705;DHT22;2877;48.238;11.160;2022-12-31T17:54:16;10.60;99.90
5705;DHT22;2877;48.238;11.160;2022-12-31T17:56:43;10.60;99.90
5705;DHT22;2877;48.238;11.160;2022-12-31T17:59:16;10.60;99.90
5705;DHT22;2877;48.238;11.160;2022-12-31T18:01:42;10.60;99.90
5705;DHT22;2877;48.238;11.160;2022-12-31T18:04:12;10.60;99.90
5705;DHT22;2877;48.238;11.160;2022-12-31T18:06:38;10.60;99.90
5705;DHT22;2877;48.238;11.160;2022-12-31T18:09:04;10.50;99.90
5705;DHT22;2877;48.238;11.160;2022-12-31T18:11:29;10.40;99.90
5705;DHT22;2877;48.238;11.160;2022-12-31T18:13:55;10.40;99.90
5705;DHT22;2877;48.238;11.160;2022-12-31T18:16:21;10.20;99.90
5705;DHT22;2877;48.238;11.160;2022-12-31T18:18:46;10.00;99.90
5705;DHT22;2877;48.238;11.160;2022-12-31T18:23:44;9.80;99.90
5705;DHT22;2877;48.238;11.160;2022-12-31T18:26:19;9.80;99.90
5705;DHT22;2877;48.238;11.160;2022-12-31T18:28:45;9.70;99.90
5705;DHT22;2877;48.238;11.160;2022-12-31T18:31:19;9.70;99.90
5705;DHT22;2877;48.238;11.160;2022-12-31T18:33:46;9.70;99.90
5705;DHT22;2877;48.238;11.160;2022-12-31T18:36:13;9.70;99.90
5705;DHT22;2877;48.238;11.160;2022-12-31T18:38:39;9.60;99.90
5705;DHT22;2877;48.238;11.160;2022-12-31T18:41:06;9.70;99.90
5705;DHT22;2877;48.238;11.160;2022-12-31T18:43:32;9.70;99.90
5705;DHT22;2877;48.238;11.160;2022-12-31T18:45:58;9.80;99.90
5705;DHT22;2877;48.238;11.160;2022-12-31T18:48:23;9.90;99.90
5705;DHT22;2877;48.238;11.160;2022-12-31T18:50:49;10.00;99.90
5705;DHT22;2877;48.238;11.160;2022-12-31T18:53:17;10.00;99.90
5705;DHT22;2877;48.238;11.160;2022-12-31T18:55:48;10.10;99.90
5705;DHT22;2877;48.238;11.160;2022-12-31T18:58:14;10.20;99.90
5705;DHT22;2877;48.238;11.160;2022-12-31T19:00:41;10.20;99.90
5705;DHT22;2877;48.238;11.160;2022-12-31T19:03:11;10.30;99.90
5705;DHT22;2877;48.238;11.160;2022-12-31T19:05:38;10.30;99.90
5705;DHT22;2877;48.238;11.160;2022-12-31T19:08:04;10.30;99.90
5705;DHT22;2877;48.238;11.160;2022-12-31T19:10:29;10.40;99.90
5705;DHT22;2877;48.238;11.160;2022-12-31T19:12:55;10.40;99.90
5705;DHT22;2877;48.238;11.160;2022-12-31T19:15:38;10.40;99.90
5705;DHT22;2877;48.238;11.160;2022-12-31T19:18:05;10.30;99.90
5705;DHT22;2877;48.238;11.160;2022-12-31T19:20:31;10.20;99.90
5705;DHT22;2877;48.238;11.160;2022-12-31T19:22:57;10.10;99.90
5705;DHT22;2877;48.238;11.160;2022-12-31T19:25:30;10.00;99.90
5705;DHT22;2877;48.238;11.160;2022-12-31T19:27:57;10.10;99.90
5705;DHT22;2877;48.238;11.160;2022-12-31T19:30:33;10.10;99.90
5705;DHT22;2877;48.238;11.160;2022-12-31T19:32:59;10.10;99.90
5705;DHT22;2877;48.238;11.160;2022-12-31T19:35:26;10.10;99.90
5705;DHT22;2877;48.238;11.160;2022-12-31T19:37:53;10.00;99.90
5705;DHT22;2877;48.238;11.160;2022-12-31T19:40:23;10.00;99.90
5705;DHT22;2877;48.238;11.160;2022-12-31T19:42:50;9.90;99.90
5705;DHT22;2877;48.238;11.160;2022-12-31T19:45:20;9.90;99.90
5705;DHT22;2877;48.238;11.160;2022-12-31T19:47:46;9.90;99.90
5705;DHT22;2877;48.238;11.160;2022-12-31T19:50:23;10.00;99.90
5705;DHT22;2877;48.238;11.160;2022-12-31T19:52:50;9.90;99.90
5705;DHT22;2877;48.238;11.160;2022-12-31T19:55:18;10.00;99.90
5705;DHT22;2877;48.238;11.160;2022-12-31T19:57:45;10.10;99.90
5705;DHT22;2877;48.238;11.160;2022-12-31T20:00:12;10.20;99.90
5705;DHT22;2877;48.238;11.160;2022-12-31T20:02:39;10.30;99.90
5705;DHT22;2877;48.238;11.160;2022-12-31T20:05:05;10.30;99.90
5705;DHT22;2877;48.238;11.160;2022-12-31T20:07:32;10.40;99.90
5705;DHT22;2877;48.238;11.160;2022-12-31T20:09:57;10.40;99.90
5705;DHT22;2877;48.238;11.160;2022-12-31T20:12:23;10.50;99.90
5705;DHT22;2877;48.238;11.160;2022-12-31T20:14:49;10.60;99.90
5705;DHT22;2877;48.238;11.160;2022-12-31T20:17:14;10.50;99.90
5705;DHT22;2877;48.238;11.160;2022-12-31T20:19:40;10.50;99.90
5705;DHT22;2877;48.238;11.160;2022-12-31T20:22:05;10.40;99.90
5705;DHT22;2877;48.238;11.160;2022-12-31T20:24:31;10.30;99.90
5705;DHT22;2877;48.238;11.160;2022-12-31T20:26:57;10.30;99.90
5705;DHT22;2877;48.238;11.160;2022-12-31T20:29:22;10.30;99.90